Time;durP1;ratioP1;P1;durP2;ratioP2;P2;SDS_P1;SDS_P2;PMS_P1;PMS_P2;Temp;Humidity;BMP_temperature;BMP_pressure;BME280_temperature;BME280_humidity;BME280_pressure;Samples;Min_cycle;Max_cycle;Signal;HPM_P1;HPM_P2
2022/01/06 00:00:14;;;;;;;2.03;2.03;;;5.60;99.90;;;;;;4152221;28;20034;-56
2022/01/06 00:02:16;;;;;;;;;;;5.40;99.90;;;;;;4161308;28;20072;-56
2022/01/06 00:04:19;;;;;;;2.28;2.28;;;5.40;99.90;;;;;;4157925;28;19925;-54
2022/01/06 00:06:23;;;;;;;2.20;2.20;;;5.30;99.90;;;;;;4162016;28;20042;-55
2022/01/06 00:08:25;;;;;;;2.42;2.42;;;5.20;99.90;;;;;;4158518;28;20037;-55
2022/01/06 00:10:29;;;;;;;2.42;2.42;;;5.20;99.90;;;;;;4161293;28;20076;-55
2022/01/06 00:12:40;;;;;;;2.72;2.72;;;5.20;99.90;;;;;;4159881;28;20077;-56
2022/01/06 00:15:02;;;;;;;5.10;5.00;;;5.10;99.90;;;;;;4161112;28;20049;-56
2022/01/06 00:17:22;;;;;;;4.37;4.27;;;5.00;99.90;;;;;;4159854;28;20148;-56
2022/01/06 00:24:06;;;;;;;4.07;3.88;;;5.00;99.90;;;;;;4158445;28;20117;-56
2022/01/06 00:26:09;;;;;;;3.63;3.63;;;4.90;99.90;;;;;;4161903;28;20573;-56
2022/01/06 00:28:12;;;;;;;2.92;2.92;;;4.80;99.90;;;;;;4163279;28;20056;-55
2022/01/06 00:30:14;;;;;;;3.33;2.70;;;4.80;99.90;;;;;;4162725;28;20077;-55
2022/01/06 00:32:16;;;;;;;2.22;2.22;;;4.60;99.90;;;;;;4159456;28;20145;-55
2022/01/06 00:34:18;;;;;;;2.50;2.50;;;4.60;99.90;;;;;;4164498;28;20064;-56
2022/01/06 00:36:20;;;;;;;2.30;2.30;;;4.60;99.90;;;;;;4156607;28;20037;-55
2022/01/06 00:38:24;;;;;;;2.10;2.10;;;4.70;99.90;;;;;;4159701;28;20618;-56
2022/01/06 00:40:27;;;;;;;1.80;1.80;;;4.50;99.90;;;;;;4160740;28;20041;-56
2022/01/06 00:42:29;;;;;;;2.10;2.00;;;4.60;99.90;;;;;;4163020;28;20033;-55
2022/01/06 00:44:31;;;;;;;2.90;2.90;;;4.60;99.90;;;;;;4160883;28;20037;-56
2022/01/06 00:46:33;;;;;;;3.13;3.13;;;4.50;99.90;;;;;;4159921;28;20037;-55
2022/01/06 00:48:35;;;;;;;3.08;3.08;;;4.40;99.90;;;;;;4162780;28;20065;-56
2022/01/06 00:50:40;;;;;;;3.80;3.42;;;4.40;99.90;;;;;;4161159;28;20115;-55
2022/01/06 00:52:42;;;;;;;3.55;3.55;;;4.50;99.90;;;;;;4161125;28;20052;-55
2022/01/06 00:54:44;;;;;;;4.03;4.03;;;4.50;99.90;;;;;;4161644;28;20055;-56
2022/01/06 00:56:46;;;;;;;4.32;4.20;;;4.50;99.90;;;;;;4160812;28;20037;-55
2022/01/06 00:58:48;;;;;;;3.63;3.63;;;4.50;99.90;;;;;;4163888;28;20561;-56
2022/01/06 01:00:50;;;;;;;3.33;3.33;;;4.50;99.90;;;;;;4160996;28;20050;-56
2022/01/06 01:02:53;;;;;;;3.28;3.28;;;4.50;99.90;;;;;;4164998;28;20054;-55
2022/01/06 01:04:55;;;;;;;3.28;3.28;;;4.40;99.90;;;;;;4159158;28;20044;-56
2022/01/06 01:06:57;;;;;;;3.92;3.92;;;4.30;99.90;;;;;;4163806;28;20124;-55
2022/01/06 01:08:59;;;;;;;3.85;3.85;;;4.30;99.90;;;;;;4163190;28;20128;-54
2022/01/06 01:11:01;;;;;;;4.68;4.57;;;4.20;99.90;;;;;;4156561;28;20085;-55
2022/01/06 01:13:04;;;;;;;4.03;4.03;;;4.20;99.90;;;;;;4157308;28;20037;-55
2022/01/06 01:15:08;;;;;;;4.35;4.20;;;4.20;99.90;;;;;;4163893;28;20069;-55
2022/01/06 01:17:15;;;;;;;3.67;3.67;;;4.30;99.90;;;;;;4162272;28;20067;-55
2022/01/06 01:19:17;;;;;;;3.42;3.42;;;4.20;99.90;;;;;;4163299;28;20039;-55
2022/01/06 01:21:22;;;;;;;3.58;3.30;;;4.30;99.90;;;;;;4162509;28;20041;-55
2022/01/06 01:23:24;;;;;;;2.92;2.92;;;4.40;99.90;;;;;;4158398;28;20254;-55
2022/01/06 01:25:26;;;;;;;3.10;3.10;;;4.40;99.90;;;;;;4160641;28;20045;-56
2022/01/06 01:27:34;;;;;;;2.75;2.75;;;4.40;99.90;;;;;;4163454;28;20044;-56
2022/01/06 01:29:51;;;;;;;3.30;3.20;;;4.40;99.90;;;;;;4160903;28;20081;-55
2022/01/06 01:31:55;;;;;;;3.80;3.80;;;4.40;99.90;;;;;;4162489;28;20065;-56
2022/01/06 01:34:00;;;;;;;3.75;3.65;;;4.30;99.90;;;;;;4163347;28;20037;-56
2022/01/06 01:36:02;;;;;;;3.25;3.25;;;4.30;99.90;;;;;;4160935;28;20095;-55
2022/01/06 01:38:04;;;;;;;3.55;3.55;;;4.40;99.90;;;;;;4163229;28;20126;-55
2022/01/06 01:40:07;;;;;;;3.85;3.85;;;4.30;99.90;;;;;;4162244;28;20072;-55
2022/01/06 01:42:09;;;;;;;3.55;3.53;;;4.10;99.90;;;;;;4163242;28;20489;-56
2022/01/06 01:44:13;;;;;;;3.40;3.40;;;4.10;99.90;;;;;;4162747;28;20500;-55
2022/01/06 01:46:19;;;;;;;3.08;3.08;;;4.20;99.90;;;;;;4163162;28;20037;-55
2022/01/06 01:48:27;;;;;;;3.10;3.00;;;4.20;99.90;;;;;;4152280;28;20030;-55
2022/01/06 01:50:29;;;;;;;2.65;2.63;;;4.30;99.90;;;;;;4157470;28;20040;-55
2022/01/06 01:52:31;;;;;;;3.50;3.50;;;4.10;99.90;;;;;;4159196;28;20041;-55
2022/01/06 01:54:33;;;;;;;2.92;2.92;;;3.90;99.90;;;;;;4161101;28;20090;-55
2022/01/06 01:56:36;;;;;;;3.47;2.88;;;3.90;99.90;;;;;;4159888;28;20041;-55
2022/01/06 01:58:40;;;;;;;2.90;2.80;;;4.00;99.90;;;;;;4163204;28;20569;-55
2022/01/06 02:00:42;;;;;;;3.10;3.10;;;4.00;99.90;;;;;;4160183;28;20080;-54
2022/01/06 02:02:44;;;;;;;2.88;2.88;;;4.10;99.90;;;;;;4161946;28;20037;-55
2022/01/06 02:04:49;;;;;;;3.25;3.25;;;4.00;99.90;;;;;;4159995;28;20048;-55
2022/01/06 02:06:52;;;;;;;2.85;2.85;;;4.10;99.90;;;;;;4163527;28;20071;-55
2022/01/06 02:08:54;;;;;;;2.42;2.42;;;3.90;99.90;;;;;;4160234;28;20045;-55
2022/01/06 02:10:56;;;;;;;;;;;3.70;99.90;;;;;;4162209;28;20429;-55
2022/01/06 02:13:01;;;;;;;2.58;2.58;;;3.70;99.90;;;;;;4161328;28;20056;-54
2022/01/06 02:15:08;;;;;;;2.95;2.95;;;3.70;99.90;;;;;;4163316;28;20099;-55
2022/01/06 02:17:10;;;;;;;3.55;3.55;;;3.60;99.90;;;;;;4160895;28;20037;-53
2022/01/06 02:19:12;;;;;;;3.75;3.75;;;3.50;99.90;;;;;;4161936;28;20064;-54
2022/01/06 02:21:14;;;;;;;5.85;5.85;;;3.50;99.90;;;;;;4159482;28;20052;-55
2022/01/06 02:23:17;;;;;;;7.50;7.50;;;3.50;99.90;;;;;;4163387;28;20034;-55
2022/01/06 02:25:26;;;;;;;7.28;7.28;;;3.40;99.90;;;;;;4159591;28;20533;-54
2022/01/06 02:27:28;;;;;;;7.53;7.53;;;3.40;99.90;;;;;;4162079;28;20046;-54
2022/01/06 02:29:30;;;;;;;6.47;6.47;;;3.50;99.90;;;;;;4159737;28;20046;-54
2022/01/06 02:31:41;;;;;;;5.57;5.57;;;3.50;99.90;;;;;;4150203;28;20418;-54
2022/01/06 02:33:44;;;;;;;6.45;6.45;;;3.50;99.90;;;;;;4154444;28;20100;-55
2022/01/06 02:35:47;;;;;;;4.35;4.35;;;3.40;99.90;;;;;;4163156;28;20073;-55
2022/01/06 02:37:49;;;;;;;3.85;3.85;;;3.40;99.90;;;;;;4160439;28;20386;-55
2022/01/06 02:39:51;;;;;;;5.85;5.85;;;3.30;99.90;;;;;;4162161;28;20099;-54
2022/01/06 02:41:53;;;;;;;5.95;5.95;;;3.20;99.90;;;;;;4159795;28;20077;-54
2022/01/06 02:43:56;;;;;;;5.50;5.50;;;3.20;99.90;;;;;;4162289;28;20034;-55
2022/01/06 02:46:02;;;;;;;5.10;5.10;;;3.10;99.90;;;;;;4159449;28;20438;-54
2022/01/06 02:48:08;;;;;;;6.03;5.93;;;3.10;99.90;;;;;;4162153;28;20476;-55
2022/01/06 02:50:12;;;;;;;7.20;7.10;;;3.10;99.90;;;;;;4160732;28;20084;-53
2022/01/06 02:52:14;;;;;;;11.65;11.43;;;3.20;99.90;;;;;;4153160;28;20045;-54
2022/01/06 02:54:16;;;;;;;8.88;8.52;;;3.10;99.90;;;;;;4159975;28;20037;-54
2022/01/06 02:56:18;;;;;;;7.57;7.32;;;3.00;99.90;;;;;;4161921;28;20041;-55
2022/01/06 02:58:21;;;;;;;6.57;6.53;;;3.00;99.90;;;;;;4159709;28;20071;-54
2022/01/06 03:00:23;;;;;;;8.35;8.25;;;3.00;99.90;;;;;;4162194;28;20068;-53
2022/01/06 03:02:26;;;;;;;10.10;10.00;;;3.00;99.90;;;;;;4159014;28;20034;-54
2022/01/06 03:04:28;;;;;;;11.13;10.88;;;3.10;99.90;;;;;;4175474;28;20413;-54
2022/01/06 03:06:31;;;;;;;9.55;9.45;;;3.00;99.90;;;;;;4160462;28;20038;-54
2022/01/06 03:08:34;;;;;;;9.98;9.88;;;3.10;99.90;;;;;;4161760;28;20394;-55
2022/01/06 03:10:41;;;;;;;8.82;8.73;;;3.00;99.90;;;;;;4159469;28;20037;-54
2022/01/06 03:12:44;;;;;;;7.30;7.20;;;3.20;99.90;;;;;;4160126;28;20073;-54
2022/01/06 03:14:47;;;;;;;7.13;7.03;;;3.10;99.90;;;;;;4157601;28;20077;-54
2022/01/06 03:16:48;;;;;;;6.13;6.13;;;3.10;99.90;;;;;;4155643;28;20041;-55
2022/01/06 03:18:51;;;;;;;4.68;4.68;;;3.10;99.90;;;;;;4160898;28;20049;-54
2022/01/06 03:20:53;;;;;;;5.43;5.32;;;3.10;99.90;;;;;;4161039;28;20072;-55
2022/01/06 03:22:56;;;;;;;4.50;4.40;;;3.10;99.90;;;;;;4161494;28;20049;-54
2022/01/06 03:24:59;;;;;;;4.00;4.00;;;3.10;99.90;;;;;;4157921;28;20052;-55
2022/01/06 03:27:01;;;;;;;;;;;3.10;99.90;;;;;;4160958;28;20037;-54
2022/01/06 03:29:03;;;;;;;4.78;4.78;;;3.00;99.90;;;;;;4158797;28;19956;-54
2022/01/06 03:31:05;;;;;;;6.75;6.65;;;3.00;99.90;;;;;;4161446;28;20045;-54
2022/01/06 03:33:07;;;;;;;8.43;8.30;;;3.10;99.90;;;;;;4159585;28;20045;-54
2022/01/06 03:35:12;;;;;;;8.02;7.82;;;3.20;99.90;;;;;;4161300;28;20065;-55
2022/01/06 03:37:14;;;;;;;7.05;6.95;;;3.10;99.90;;;;;;4158686;28;20038;-55
2022/01/06 03:39:16;;;;;;;5.75;5.65;;;3.20;99.90;;;;;;4159722;28;20038;-54
2022/01/06 03:41:18;;;;;;;5.97;5.88;;;3.10;99.90;;;;;;4158864;28;20034;-54
2022/01/06 03:43:21;;;;;;;5.60;5.60;;;3.00;99.90;;;;;;4161639;28;20044;-54
2022/01/06 03:45:23;;;;;;;;;;;3.10;99.90;;;;;;4160039;28;20132;-55
2022/01/06 03:47:25;;;;;;;3.42;3.42;;;3.10;99.90;;;;;;4161778;28;19932;-55
2022/01/06 03:49:27;;;;;;;3.80;3.80;;;3.20;99.90;;;;;;4159667;28;20359;-55
2022/01/06 03:51:30;;;;;;;4.35;4.35;;;3.20;99.90;;;;;;4160899;28;20045;-55
2022/01/06 03:53:32;;;;;;;;;;;3.20;99.90;;;;;;4160221;28;20038;-54
2022/01/06 03:55:34;;;;;;;4.63;4.63;;;3.10;99.90;;;;;;4159933;28;19971;-54
2022/01/06 03:57:37;;;;;;;5.05;5.05;;;3.10;99.90;;;;;;4159843;28;20740;-55
2022/01/06 03:59:39;;;;;;;6.22;6.13;;;3.10;99.90;;;;;;4162703;28;20046;-54
2022/01/06 04:01:41;;;;;;;4.97;4.97;;;3.00;99.90;;;;;;4161578;28;20034;-54
2022/01/06 04:03:46;;;;;;;5.18;5.18;;;3.10;99.90;;;;;;4163932;28;20524;-54
2022/01/06 04:05:48;;;;;;;4.75;4.65;;;3.10;99.90;;;;;;4163074;28;20060;-54
2022/01/06 04:07:50;;;;;;;5.70;5.70;;;3.10;99.90;;;;;;4165563;28;20537;-55
2022/01/06 04:09:52;;;;;;;4.05;4.05;;;3.10;99.90;;;;;;4161350;28;20076;-55
2022/01/06 04:11:54;;;;;;;5.50;5.30;;;3.20;99.90;;;;;;4164989;28;20061;-53
2022/01/06 04:13:56;;;;;;;6.55;6.55;;;3.10;99.90;;;;;;4161986;28;20077;-55
2022/01/06 04:16:01;;;;;;;;;;;3.10;99.90;;;;;;4164846;28;20072;-55
2022/01/06 04:18:03;;;;;;;7.53;7.43;;;3.10;99.90;;;;;;4161664;28;20305;-54
2022/01/06 04:20:07;;;;;;;6.13;6.13;;;3.00;99.90;;;;;;4168626;28;20072;-55
2022/01/06 04:22:09;;;;;;;5.15;5.03;;;3.10;99.90;;;;;;4160156;28;20121;-54
2022/01/06 04:24:11;;;;;;;4.32;4.32;;;3.20;99.90;;;;;;4167949;28;20553;-55
2022/01/06 04:26:16;;;;;;;4.35;4.35;;;3.10;99.90;;;;;;4160599;28;20497;-54
2022/01/06 04:28:18;;;;;;;4.07;4.07;;;3.00;99.90;;;;;;4165203;28;20045;-55
2022/01/06 04:30:21;;;;;;;4.80;4.80;;;3.00;99.90;;;;;;4161263;28;20091;-55
2022/01/06 04:32:23;;;;;;;4.78;4.78;;;3.00;99.90;;;;;;4161752;28;20480;-54
2022/01/06 04:34:25;;;;;;;4.22;4.22;;;2.90;99.90;;;;;;4161779;28;20074;-55
2022/01/06 04:36:27;;;;;;;5.32;5.32;;;3.00;99.90;;;;;;4164363;28;20775;-55
2022/01/06 04:38:29;;;;;;;6.45;6.30;;;3.00;99.90;;;;;;4162885;28;20124;-54
2022/01/06 04:40:31;;;;;;;6.97;6.97;;;3.10;99.90;;;;;;4163618;28;20033;-55
2022/01/06 04:42:34;;;;;;;7.82;7.82;;;3.00;99.90;;;;;;4163542;28;20068;-54
2022/01/06 04:44:36;;;;;;;7.97;7.97;;;3.10;99.90;;;;;;4161602;28;20079;-54
2022/01/06 04:46:38;;;;;;;;;;;3.10;99.90;;;;;;4162317;28;20029;-55
2022/01/06 04:48:40;;;;;;;6.30;6.20;;;3.10;99.90;;;;;;4163473;28;20036;-54
2022/01/06 04:50:42;;;;;;;5.05;5.05;;;3.10;99.90;;;;;;4163359;28;20053;-54
2022/01/06 04:52:45;;;;;;;6.13;6.13;;;3.10;99.90;;;;;;4164435;28;20467;-54
2022/01/06 04:54:47;;;;;;;7.30;7.30;;;3.10;99.90;;;;;;4160698;28;20576;-54
2022/01/06 04:56:50;;;;;;;5.88;5.88;;;3.10;99.90;;;;;;4165041;28;20053;-54
2022/01/06 04:58:52;;;;;;;6.75;6.75;;;3.10;99.90;;;;;;4161635;28;20839;-54
2022/01/06 05:00:54;;;;;;;6.03;6.03;;;3.10;99.90;;;;;;4163590;28;20602;-55
2022/01/06 05:02:57;;;;;;;5.82;5.82;;;3.20;99.90;;;;;;4161437;28;20034;-55
2022/01/06 05:04:59;;;;;;;6.60;6.60;;;3.20;99.90;;;;;;4163826;28;20048;-54
2022/01/06 05:07:01;;;;;;;8.27;8.27;;;3.20;99.90;;;;;;4160614;28;20049;-54
2022/01/06 05:09:03;;;;;;;8.50;8.50;;;3.30;99.90;;;;;;4163821;28;20041;-55
2022/01/06 05:11:05;;;;;;;9.93;9.82;;;3.30;99.90;;;;;;4162435;28;20466;-55
2022/01/06 05:13:07;;;;;;;13.65;13.55;;;3.30;99.90;;;;;;4159496;28;20525;-54
2022/01/06 05:15:11;;;;;;;12.90;12.80;;;3.30;99.90;;;;;;4160904;28;20041;-54
2022/01/06 05:17:13;;;;;;;14.20;14.10;;;3.30;99.90;;;;;;4163571;28;20731;-54
2022/01/06 05:19:15;;;;;;;13.73;13.63;;;3.30;99.90;;;;;;4160135;28;20128;-54
2022/01/06 05:21:17;;;;;;;13.98;13.88;;;3.30;99.90;;;;;;4163342;28;20121;-55
2022/01/06 05:23:19;;;;;;;15.00;14.90;;;3.30;99.90;;;;;;4162284;28;20589;-54
2022/01/06 05:25:25;;;;;;;;;;;3.30;99.90;;;;;;4162871;28;20038;-54
2022/01/06 05:27:27;;;;;;;14.85;14.75;;;3.30;99.90;;;;;;4162356;28;20365;-54
2022/01/06 05:29:29;;;;;;;14.88;14.77;;;3.30;99.90;;;;;;4163447;28;20040;-55
2022/01/06 05:31:31;;;;;;;15.60;15.50;;;3.40;99.90;;;;;;4157022;28;20069;-54
2022/01/06 05:33:34;;;;;;;18.67;18.58;;;3.40;99.90;;;;;;4147572;28;20041;-53
2022/01/06 05:35:36;;;;;;;16.23;16.13;;;3.40;99.90;;;;;;4160927;28;20064;-53
2022/01/06 05:37:38;;;;;;;15.60;15.50;;;3.40;99.90;;;;;;4163522;28;20038;-54
2022/01/06 05:39:40;;;;;;;14.35;14.25;;;3.40;99.90;;;;;;4161005;28;20676;-54
2022/01/06 05:41:43;;;;;;;11.57;11.48;;;3.40;99.90;;;;;;4163171;28;20447;-53
2022/01/06 05:43:45;;;;;;;12.10;12.00;;;3.40;99.90;;;;;;4159622;28;20052;-54
2022/01/06 05:45:51;;;;;;;14.25;14.15;;;3.40;99.90;;;;;;4163607;28;21112;-54
2022/01/06 05:47:53;;;;;;;14.85;14.75;;;3.40;99.90;;;;;;4160867;28;20048;-53
2022/01/06 05:49:55;;;;;;;13.63;13.52;;;3.40;99.90;;;;;;4163407;28;20056;-55
2022/01/06 05:51:57;;;;;;;12.20;12.10;;;3.40;99.90;;;;;;4161923;28;20103;-55
2022/01/06 05:53:59;;;;;;;9.93;9.82;;;3.30;99.90;;;;;;4162954;28;20084;-54
2022/01/06 05:56:01;;;;;;;7.88;7.88;;;3.30;99.90;;;;;;4160589;28;20071;-54
2022/01/06 05:58:03;;;;;;;6.53;6.53;;;3.30;99.90;;;;;;4162268;28;20045;-54
2022/01/06 06:00:07;;;;;;;5.72;5.72;;;3.30;99.90;;;;;;4159619;28;20044;-53
2022/01/06 06:02:09;;;;;;;5.35;5.35;;;3.30;99.90;;;;;;4151421;28;20034;-54
2022/01/06 06:04:12;;;;;;;7.38;7.38;;;3.40;99.90;;;;;;4163117;28;20625;-54
2022/01/06 06:06:14;;;;;;;7.72;7.72;;;3.40;99.90;;;;;;4161578;28;20124;-54
2022/01/06 06:08:16;;;;;;;8.35;8.25;;;3.50;99.90;;;;;;4161923;28;20425;-55
2022/01/06 06:10:18;;;;;;;8.40;8.32;;;3.40;99.90;;;;;;4155267;28;20041;-54
2022/01/06 06:12:20;;;;;;;3.70;3.70;;;3.50;99.90;;;;;;4158119;28;20125;-55
2022/01/06 06:14:22;;;;;;;4.82;4.82;;;3.50;99.90;;;;;;4161614;28;20048;-55
2022/01/06 06:16:25;;;;;;;5.18;5.18;;;3.40;99.90;;;;;;4162620;28;20127;-54
2022/01/06 06:18:27;;;;;;;6.88;6.88;;;3.40;99.90;;;;;;4149088;28;20132;-55
2022/01/06 06:20:29;;;;;;;5.05;5.05;;;3.50;99.90;;;;;;4159580;28;20041;-55
2022/01/06 06:22:31;;;;;;;4.22;4.22;;;3.50;99.90;;;;;;4154325;28;20481;-54
2022/01/06 06:24:33;;;;;;;6.97;6.97;;;3.30;99.90;;;;;;4160628;28;20069;-54
2022/01/06 06:26:36;;;;;;;7.43;7.43;;;3.40;99.90;;;;;;4155754;28;20083;-54
2022/01/06 06:28:38;;;;;;;8.18;8.18;;;3.40;99.90;;;;;;4162247;28;20433;-55
2022/01/06 06:30:40;;;;;;;4.53;4.53;;;3.20;99.90;;;;;;4153175;28;20465;-55
2022/01/06 06:32:42;;;;;;;10.52;10.43;;;3.10;99.90;;;;;;4161148;28;20505;-54
2022/01/06 06:34:44;;;;;;;9.77;9.68;;;3.00;99.90;;;;;;4160977;28;20060;-55
2022/01/06 06:36:46;;;;;;;10.00;9.90;;;3.00;99.90;;;;;;4165330;28;20041;-55
2022/01/06 06:38:48;;;;;;;10.75;10.65;;;3.00;99.90;;;;;;4160269;28;20152;-55
2022/01/06 06:40:51;;;;;;;10.00;9.90;;;3.00;99.90;;;;;;4160606;28;20107;-54
2022/01/06 06:42:53;;;;;;;8.95;8.90;;;3.00;99.90;;;;;;4159046;28;20046;-55
2022/01/06 06:44:55;;;;;;;8.75;8.65;;;3.00;99.90;;;;;;4157331;28;20797;-55
2022/01/06 06:46:57;;;;;;;10.27;10.18;;;3.00;99.90;;;;;;4150893;28;20100;-54
2022/01/06 06:48:59;;;;;;;10.55;10.45;;;2.90;99.90;;;;;;4161114;28;20095;-55
2022/01/06 06:51:02;;;;;;;10.77;10.68;;;2.90;99.90;;;;;;4159090;28;20041;-54
2022/01/06 06:53:04;;;;;;;11.02;10.82;;;2.90;99.90;;;;;;4161498;28;20049;-53
2022/01/06 06:55:07;;;;;;;9.77;9.68;;;2.90;99.90;;;;;;4159195;28;20120;-55
2022/01/06 06:57:09;;;;;;;;;;;2.90;99.90;;;;;;4162734;28;20038;-54
2022/01/06 06:59:11;;;;;;;8.40;8.30;;;2.90;99.90;;;;;;4159411;28;20349;-54
2022/01/06 07:01:13;;;;;;;7.35;7.35;;;2.90;99.90;;;;;;4162160;28;20033;-55
2022/01/06 07:03:16;;;;;;;7.57;7.57;;;2.90;99.90;;;;;;4160255;28;20103;-54
2022/01/06 07:05:18;;;;;;;6.03;6.03;;;2.90;99.90;;;;;;4162312;28;20037;-54
2022/01/06 07:07:20;;;;;;;4.28;4.28;;;2.90;99.90;;;;;;4160838;28;20458;-54
2022/01/06 07:09:22;;;;;;;4.47;4.47;;;3.00;99.90;;;;;;4159519;28;20383;-54
2022/01/06 07:11:24;;;;;;;4.70;4.57;;;3.00;99.90;;;;;;4157106;28;20057;-54
2022/01/06 07:13:26;;;;;;;3.92;3.72;;;3.00;99.90;;;;;;4161522;28;20072;-55
2022/01/06 07:15:29;;;;;;;5.28;5.28;;;3.00;99.90;;;;;;4160876;28;20028;-53
2022/01/06 07:17:31;;;;;;;7.13;7.13;;;3.00;99.90;;;;;;4160216;28;20049;-53
2022/01/06 07:19:33;;;;;;;9.68;9.57;;;3.00;99.90;;;;;;4156817;28;20045;-54
2022/01/06 07:21:35;;;;;;;10.65;10.55;;;3.00;99.90;;;;;;4160871;28;20072;-55
2022/01/06 07:23:37;;;;;;;10.95;10.75;;;3.10;99.90;;;;;;4159504;28;20383;-53
2022/01/06 07:25:39;;;;;;;8.52;8.52;;;3.10;99.90;;;;;;4160886;28;20053;-54
2022/01/06 07:27:41;;;;;;;6.95;6.95;;;3.20;99.90;;;;;;4157677;28;20037;-54
2022/01/06 07:29:44;;;;;;;6.05;6.05;;;3.10;99.90;;;;;;4161208;28;20038;-54
2022/01/06 07:31:46;;;;;;;5.80;5.80;;;3.10;99.90;;;;;;4159657;28;20830;-55
2022/01/06 07:33:48;;;;;;;4.40;4.40;;;3.10;99.90;;;;;;4160716;28;20124;-54
2022/01/06 07:35:50;;;;;;;3.90;3.90;;;3.10;99.90;;;;;;4160811;28;20042;-54
2022/01/06 07:37:53;;;;;;;4.13;4.13;;;3.10;99.90;;;;;;4159264;28;20065;-55
2022/01/06 07:39:55;;;;;;;4.95;4.95;;;3.00;99.90;;;;;;4158382;28;20819;-54
2022/01/06 07:41:57;;;;;;;5.95;5.95;;;3.10;99.90;;;;;;4160879;28;20571;-55
2022/01/06 07:43:59;;;;;;;6.65;6.55;;;3.10;99.90;;;;;;4155490;28;20041;-54
2022/01/06 07:46:01;;;;;;;8.18;7.97;;;3.10;99.90;;;;;;4155686;28;20142;-55
2022/01/06 07:48:14;;;;;;;9.02;8.88;;;3.10;99.90;;;;;;4158304;28;20065;-55
2022/01/06 07:50:16;;;;;;;7.20;7.10;;;3.10;99.90;;;;;;4160258;28;20045;-55
2022/01/06 07:52:18;;;;;;;7.20;6.97;;;3.10;99.90;;;;;;4158704;28;20113;-54
2022/01/06 07:54:21;;;;;;;6.10;6.10;;;3.10;99.90;;;;;;4172959;28;20037;-54
2022/01/06 07:56:23;;;;;;;;;;;3.20;99.90;;;;;;4154918;28;20041;-55
2022/01/06 07:58:25;;;;;;;8.23;8.02;;;3.20;99.90;;;;;;4156694;28;20020;-54
2022/01/06 08:00:27;;;;;;;6.07;5.78;;;3.30;99.90;;;;;;4158955;28;20144;-55
2022/01/06 08:02:29;;;;;;;6.00;5.90;;;3.40;99.90;;;;;;4156967;28;20065;-54
2022/01/06 08:04:32;;;;;;;4.50;4.50;;;3.50;99.90;;;;;;4160495;28;20056;-55
2022/01/06 08:06:34;;;;;;;3.88;3.88;;;3.70;99.90;;;;;;4155227;28;20069;-54
2022/01/06 08:08:37;;;;;;;4.38;4.38;;;3.70;99.90;;;;;;4157334;28;20037;-54
2022/01/06 08:10:39;;;;;;;;;;;3.70;99.90;;;;;;4159118;28;20045;-54
2022/01/06 08:12:41;;;;;;;3.85;3.85;;;3.80;99.90;;;;;;4154088;28;20408;-54
2022/01/06 08:14:46;;;;;;;3.58;3.58;;;3.80;99.90;;;;;;4157500;28;20124;-55
2022/01/06 08:16:49;;;;;;;3.17;3.08;;;3.80;99.90;;;;;;4159062;28;20033;-55
2022/01/06 08:18:51;;;;;;;3.70;3.70;;;3.70;99.90;;;;;;4158450;28;20069;-54
2022/01/06 08:20:53;;;;;;;3.70;3.70;;;3.70;99.90;;;;;;4153422;28;20073;-55
2022/01/06 08:22:55;;;;;;;3.13;3.13;;;3.70;99.90;;;;;;4158714;28;20050;-54
2022/01/06 08:24:57;;;;;;;3.33;3.33;;;3.70;99.90;;;;;;4157688;28;20156;-54
2022/01/06 08:26:59;;;;;;;4.10;4.10;;;3.70;99.90;;;;;;4160274;28;20093;-53
2022/01/06 08:29:01;;;;;;;3.45;3.45;;;3.80;99.90;;;;;;4158206;28;20041;-54
2022/01/06 08:31:04;;;;;;;4.30;4.20;;;3.70;99.90;;;;;;4162075;28;20410;-55
2022/01/06 08:33:06;;;;;;;3.30;3.30;;;3.80;99.90;;;;;;4156593;28;20032;-54
2022/01/06 08:35:08;;;;;;;5.30;5.20;;;3.80;99.90;;;;;;4159894;28;20095;-54
2022/01/06 08:37:10;;;;;;;;;;;3.80;99.90;;;;;;4157144;28;20042;-55
2022/01/06 08:39:12;;;;;;;3.80;3.80;;;3.90;99.90;;;;;;4158627;28;20016;-54
2022/01/06 08:41:14;;;;;;;2.95;2.95;;;3.90;99.90;;;;;;4159665;28;20133;-53
2022/01/06 08:43:27;;;;;;;3.45;3.45;;;3.90;99.90;;;;;;4154889;28;20042;-54
2022/01/06 08:45:32;;;;;;;3.20;3.20;;;3.90;99.90;;;;;;4158297;28;20045;-55
2022/01/06 08:47:34;;;;;;;3.45;3.45;;;4.10;99.90;;;;;;4163249;28;20113;-55
2022/01/06 08:49:37;;;;;;;4.85;4.75;;;4.10;99.90;;;;;;4161053;28;20073;-54
2022/01/06 08:51:40;;;;;;;4.70;4.60;;;4.20;99.90;;;;;;4155310;28;20037;-55
2022/01/06 08:53:42;;;;;;;;;;;4.20;99.90;;;;;;4160652;28;20080;-54
2022/01/06 08:55:46;;;;;;;3.78;3.78;;;4.30;99.90;;;;;;4164757;28;19987;-55
2022/01/06 08:57:49;;;;;;;4.00;4.00;;;4.30;99.90;;;;;;4162007;28;20398;-55
2022/01/06 08:59:51;;;;;;;4.43;4.32;;;4.40;99.90;;;;;;4154161;28;20154;-55
2022/01/06 09:01:53;;;;;;;4.18;4.18;;;4.50;99.90;;;;;;4160826;28;20147;-54
2022/01/06 09:03:55;;;;;;;3.30;3.30;;;4.60;99.90;;;;;;4163532;28;20095;-55
2022/01/06 09:05:57;;;;;;;3.45;3.45;;;4.60;99.90;;;;;;4161294;28;20041;-55
2022/01/06 09:07:59;;;;;;;3.72;3.47;;;4.70;99.90;;;;;;4163888;28;20038;-54
2022/01/06 09:10:03;;;;;;;4.57;4.57;;;4.70;99.90;;;;;;4159818;28;20120;-54
2022/01/06 09:12:07;;;;;;;7.53;7.43;;;4.80;99.90;;;;;;4163986;28;20142;-54
2022/01/06 09:14:10;;;;;;;3.85;3.85;;;4.90;99.90;;;;;;4159486;28;20183;-54
2022/01/06 09:16:13;;;;;;;3.22;3.13;;;4.80;99.90;;;;;;4154024;28;20046;-54
2022/01/06 09:18:15;;;;;;;3.58;3.58;;;4.80;99.90;;;;;;4160260;28;20057;-54
2022/01/06 09:20:17;;;;;;;2.90;2.90;;;4.90;99.90;;;;;;4162778;28;20052;-53
2022/01/06 09:22:19;;;;;;;3.20;3.20;;;4.80;99.90;;;;;;4157014;28;20073;-53
2022/01/06 09:24:21;;;;;;;3.13;3.13;;;4.80;99.90;;;;;;4162269;28;20038;-54
2022/01/06 09:26:23;;;;;;;3.30;3.30;;;4.80;99.90;;;;;;4161181;28;20132;-54
2022/01/06 09:28:26;;;;;;;2.88;2.88;;;4.80;99.90;;;;;;4157373;28;20045;-53
2022/01/06 09:30:28;;;;;;;2.97;2.97;;;4.80;99.90;;;;;;4160327;28;20038;-54
2022/01/06 09:32:30;;;;;;;4.85;4.75;;;4.80;99.90;;;;;;4163887;28;20116;-54
2022/01/06 09:34:32;;;;;;;3.00;3.00;;;4.80;99.90;;;;;;4162109;28;20131;-54
2022/01/06 09:36:37;;;;;;;3.13;3.13;;;4.80;99.90;;;;;;4162262;28;20079;-53
2022/01/06 09:38:39;;;;;;;5.05;4.95;;;4.80;99.90;;;;;;4161810;28;20485;-54
2022/01/06 09:40:43;;;;;;;8.82;8.38;;;4.80;99.90;;;;;;4157195;28;20068;-54
2022/01/06 09:42:45;;;;;;;3.42;3.42;;;4.80;99.90;;;;;;4159360;28;20120;-54
2022/01/06 09:44:49;;;;;;;3.53;3.45;;;4.80;99.90;;;;;;4163403;28;20410;-54
2022/01/06 09:46:54;;;;;;;5.03;4.93;;;4.90;99.90;;;;;;4159406;28;20042;-55
2022/01/06 09:48:59;;;;;;;3.03;3.03;;;4.90;99.90;;;;;;4155090;28;20049;-54
2022/01/06 09:51:02;;;;;;;2.60;2.60;;;5.00;99.90;;;;;;4159329;28;20458;-53
2022/01/06 09:53:04;;;;;;;3.33;3.30;;;5.00;99.90;;;;;;4152637;28;20116;-54
2022/01/06 09:55:07;;;;;;;2.90;2.90;;;5.00;99.90;;;;;;4161105;28;20489;-54
2022/01/06 09:57:15;;;;;;;3.83;3.72;;;4.90;99.90;;;;;;4161589;28;20473;-55
2022/01/06 09:59:17;;;;;;;4.00;4.00;;;4.90;99.90;;;;;;4161044;28;20524;-54
2022/01/06 10:01:20;;;;;;;3.05;3.05;;;4.90;99.90;;;;;;4162005;28;20045;-54
2022/01/06 10:03:46;;;;;;;2.90;2.90;;;5.00;99.90;;;;;;4160726;28;20111;-54
2022/01/06 10:05:49;;;;;;;5.05;4.95;;;5.00;99.90;;;;;;4161471;28;20037;-54
2022/01/06 10:07:55;;;;;;;3.08;3.08;;;5.00;99.90;;;;;;4161763;28;20049;-53
2022/01/06 10:10:08;;;;;;;11.68;10.93;;;5.00;99.90;;;;;;4160608;28;20128;-54
2022/01/06 10:12:13;;;;;;;4.90;4.80;;;5.00;99.90;;;;;;4162095;28;20055;-54
2022/01/06 10:14:20;;;;;;;6.30;6.00;;;5.00;99.90;;;;;;4159919;28;20041;-55
2022/01/06 10:16:23;;;;;;;3.50;3.50;;;5.00;99.90;;;;;;4162813;28;20556;-54
2022/01/06 10:18:25;;;;;;;3.20;3.20;;;5.00;99.90;;;;;;4159801;28;20037;-54
2022/01/06 10:20:27;;;;;;;3.80;3.80;;;5.00;99.90;;;;;;4162453;28;20052;-54
2022/01/06 10:22:29;;;;;;;3.92;3.80;;;5.00;99.90;;;;;;4158060;28;20116;-55
2022/01/06 10:24:31;;;;;;;4.32;4.22;;;5.00;99.90;;;;;;4163466;28;20172;-52
2022/01/06 10:26:35;;;;;;;3.80;3.80;;;5.00;99.90;;;;;;4159813;28;20517;-54
2022/01/06 10:28:38;;;;;;;2.60;2.60;;;5.00;99.90;;;;;;4162590;28;20711;-54
2022/01/06 10:30:47;;;;;;;3.10;3.10;;;5.00;99.90;;;;;;4159498;28;20060;-54
2022/01/06 10:32:49;;;;;;;2.72;2.72;;;4.90;99.90;;;;;;4162814;28;20045;-54
2022/01/06 10:34:53;;;;;;;2.83;2.78;;;5.00;99.90;;;;;;4160579;28;20049;-54
2022/01/06 10:36:55;;;;;;;3.00;3.00;;;5.00;99.90;;;;;;4161540;28;20049;-54
2022/01/06 10:38:59;;;;;;;3.28;3.28;;;4.90;99.90;;;;;;4159167;28;20054;-53
2022/01/06 10:41:13;;;;;;;3.70;3.70;;;4.90;99.90;;;;;;4161422;28;20048;-54
2022/01/06 10:43:15;;;;;;;4.05;4.05;;;4.90;99.90;;;;;;4159082;28;20084;-54
2022/01/06 10:45:25;;;;;;;5.88;5.88;;;5.00;99.90;;;;;;4161117;28;20144;-54
2022/01/06 10:47:40;;;;;;;5.15;5.15;;;5.00;99.90;;;;;;4156168;28;20164;-53
2022/01/06 10:49:42;;;;;;;4.85;4.85;;;4.90;99.90;;;;;;4147703;28;20125;-53
2022/01/06 10:51:50;;;;;;;3.42;3.42;;;5.00;99.90;;;;;;4158554;28;20048;-54
2022/01/06 10:53:52;;;;;;;3.47;3.47;;;4.90;99.90;;;;;;4161562;28;20512;-54